Portada
METAR-TAF:

METAR-TAF

Aeropuertos :

Aeropuerto de París-Charles de Gaulle

París-Charles De Gaulle, Francia

latitud: 49-01N, longitud: 002-32E, altitud: 118 m

Observación

El informe se hizo hace 1 hora y 6 minutos, a las 05:00 UTC
Viento 3 kt del norte-noroeste
Temperatura 19°C
Humedad 83%
Presión 1021 hPa
Visibilidad 10 km o más
Cielo nuboso a una altura de 4600 ft

METAR: LFPG 210500Z 33003KT 9999 BKN046 19/16 Q1021 NOSIG

Hora: 08:06 (06:06 UTC)

Pronóstico

El informe se hizo hace 2 horas y 40 minutos, a las 03:26 UTC
Pronóstico válido del 21 a las 03 UTC al 22 a las 06 UTC
Viento 5 kt del norte
Visibilidad 10 km o más
Escasas nubes a una altura de 3000 ft
Cielo nuboso a una altura de 4500 ft

TAF: LFPG 210326Z 2103/2206 01005KT 9999 FEW030 BKN045 TX28/2116Z TN17/2104Z

Observaciones y pronósticos meteorológicos de más de 4000 aeropuertos (mensajes METAR y TAF).

Los puntos amarillos y rojos representan las estaciones disponibles.

Ponga el ratón en el punto deseado para ver el nombre de la estación.

Haga clic para ver las observaciones y los pronósticos meteorológicos.

Para cambiar el mapa : haga clic en los botones verdes con una cruz de color negro para hacer un zoom, en el botón verde con un guión para alejar o en las flechas verdes para mapas adyacentes.


METAR-TAF: